createdAt,value
2023-02-28T00:03:57.295Z,1.02
2023-02-28T00:08:54.517Z,1.30
2023-02-28T00:13:52.732Z,1.77
2023-02-28T00:18:50.831Z,0.95
2023-02-28T00:23:48.047Z,1.60
2023-02-28T00:28:45.188Z,0.75
2023-02-28T00:33:43.076Z,1.25
2023-02-28T00:38:41.931Z,0.82
2023-02-28T00:43:43.099Z,1.02
2023-02-28T00:48:42.599Z,16.83
2023-02-28T00:53:39.736Z,10.43
2023-02-28T00:58:37.329Z,11.65
2023-02-28T01:03:36.660Z,13.85
2023-02-28T01:08:39.301Z,13.15
2023-02-28T01:13:36.670Z,15.07
2023-02-28T01:18:33.764Z,15.35
2023-02-28T01:23:34.632Z,18.20
2023-02-28T01:28:33.176Z,14.48
2023-02-28T01:33:34.779Z,15.35
2023-02-28T01:38:32.245Z,17.95
2023-02-28T01:43:33.134Z,15.13
2023-02-28T01:48:36.078Z,15.93
2023-02-28T01:53:36.463Z,12.40
2023-02-28T01:58:40.831Z,14.05
2023-02-28T02:08:48.818Z,17.15
2023-02-28T02:14:29.804Z,16.35
2023-02-28T02:20:25.245Z,21.92
2023-02-28T02:25:37.257Z,14.77
2023-02-28T02:30:57.166Z,15.05
2023-02-28T02:36:00.642Z,13.30
2023-02-28T02:41:19.865Z,14.23
2023-02-28T02:46:40.113Z,16.10
2023-02-28T02:51:44.125Z,18.58
2023-02-28T02:56:52.038Z,21.02
2023-02-28T03:02:00.109Z,20.57
2023-02-28T03:07:26.716Z,22.10
2023-02-28T03:13:21.683Z,21.42
2023-02-28T03:18:47.049Z,17.05
2023-02-28T03:43:09.744Z,24.33
2023-02-28T03:49:25.248Z,20.65
2023-02-28T04:54:06.060Z,31.73
2023-02-28T05:05:46.207Z,27.67
2023-02-28T05:10:59.107Z,30.17
2023-02-28T05:16:14.879Z,29.80
2023-02-28T05:55:47.747Z,31.00
2023-02-28T06:02:00.519Z,26.23
2023-02-28T06:19:59.329Z,23.35
2023-02-28T06:25:24.294Z,27.75
2023-02-28T06:30:29.207Z,24.45
2023-02-28T06:35:43.883Z,22.08
2023-02-28T06:40:47.774Z,26.70
2023-02-28T06:46:00.704Z,27.75
2023-02-28T06:51:14.627Z,26.60
2023-02-28T06:56:56.426Z,31.55
2023-02-28T07:02:42.860Z,25.77
2023-02-28T07:09:21.294Z,31.38
2023-02-28T07:26:41.972Z,32.05
2023-02-28T07:32:31.986Z,26.33
2023-02-28T07:37:50.934Z,25.40
2023-02-28T07:48:58.825Z,23.77
2023-02-28T07:55:03.413Z,32.05
2023-02-28T08:00:59.990Z,33.00
2023-02-28T08:06:08.115Z,32.08
2023-02-28T08:11:45.779Z,29.53
2023-02-28T08:16:56.460Z,35.90
2023-02-28T08:22:44.810Z,29.77
2023-02-28T08:28:30.170Z,27.85
2023-02-28T08:33:50.598Z,30.00
2023-02-28T08:38:57.382Z,25.02
2023-02-28T08:44:26.238Z,34.23
2023-02-28T08:49:28.444Z,24.08
2023-02-28T08:54:44.864Z,28.70
2023-02-28T08:59:49.376Z,28.17
2023-02-28T09:05:16.130Z,28.42
2023-02-28T09:10:37.210Z,25.73
2023-02-28T09:16:07.172Z,25.48
2023-02-28T09:21:39.666Z,28.05
2023-02-28T09:32:21.599Z,26.50
2023-02-28T09:37:51.336Z,26.83
2023-02-28T09:43:20.172Z,26.63
2023-02-28T09:48:40.780Z,26.45
2023-02-28T09:54:12.531Z,30.17
2023-02-28T10:00:00.718Z,26.13
2023-02-28T10:05:12.112Z,21.90
2023-02-28T10:16:40.185Z,27.70
2023-02-28T10:22:50.291Z,29.27
2023-02-28T10:35:08.436Z,29.40
2023-02-28T10:53:44.726Z,25.35
2023-02-28T10:59:55.090Z,28.05
2023-02-28T11:11:40.126Z,24.65
2023-02-28T11:17:06.951Z,25.58
2023-02-28T11:22:46.941Z,24.48
2023-02-28T11:29:16.372Z,27.90
2023-02-28T12:32:47.083Z,34.15
2023-02-28T12:38:36.382Z,33.22
2023-02-28T12:44:20.235Z,34.97
2023-02-28T12:49:39.326Z,30.40
2023-02-28T12:55:02.396Z,28.90
2023-02-28T13:00:17.443Z,29.58
2023-02-28T13:06:20.455Z,27.95
2023-02-28T13:11:37.055Z,28.65
2023-02-28T13:23:08.645Z,25.17
2023-02-28T13:34:21.485Z,28.30
2023-02-28T13:39:58.860Z,26.50
2023-02-28T13:51:58.190Z,22.98
2023-02-28T14:04:11.471Z,26.73
2023-02-28T14:09:54.242Z,24.52
2023-02-28T14:15:39.697Z,25.77
2023-02-28T14:21:35.015Z,29.37
2023-02-28T14:27:37.982Z,24.92
2023-02-28T14:57:49.749Z,23.00
2023-02-28T15:04:11.997Z,21.35
2023-02-28T21:20:37.745Z,30.40
2023-02-28T21:25:35.001Z,32.05
2023-02-28T21:30:31.978Z,26.08
2023-02-28T21:35:29.008Z,30.40
2023-02-28T21:40:26.973Z,27.60
2023-02-28T21:45:23.822Z,30.25
2023-02-28T21:50:20.778Z,28.23
2023-02-28T21:55:17.781Z,33.13
2023-02-28T22:00:16.549Z,28.23
2023-02-28T22:05:13.629Z,28.42
2023-02-28T22:10:12.437Z,28.60
2023-02-28T22:15:10.292Z,25.73
2023-02-28T22:20:09.664Z,25.23
2023-02-28T22:25:09.112Z,28.08
2023-02-28T22:30:07.151Z,27.20
2023-02-28T22:35:04.950Z,25.90
2023-02-28T22:40:02.985Z,20.52
2023-02-28T22:45:00.035Z,21.92
2023-02-28T22:50:00.020Z,27.08
2023-02-28T22:54:58.332Z,23.77
2023-02-28T22:59:56.275Z,24.90
2023-02-28T23:04:55.153Z,25.17
2023-02-28T23:09:54.153Z,23.30
2023-02-28T23:14:51.624Z,23.13
2023-02-28T23:19:49.509Z,22.33
2023-02-28T23:24:46.510Z,20.25
2023-02-28T23:29:43.598Z,21.95
2023-02-28T23:34:40.869Z,24.27
2023-02-28T23:39:43.752Z,22.65
2023-02-28T23:44:40.961Z,28.23
2023-02-28T23:49:38.064Z,25.35
2023-02-28T23:54:36.262Z,24.73
2023-02-28T23:59:34.654Z,24.63
